createdAt,value
2022-08-09T00:01:54.493Z,1.70
2022-08-09T00:04:34.093Z,1.33
2022-08-09T00:07:10.635Z,1.60
2022-08-09T00:09:39.037Z,2.08
2022-08-09T00:12:07.756Z,2.03
2022-08-09T00:14:38.265Z,1.80
2022-08-09T00:17:07.396Z,1.67
2022-08-09T00:19:36.739Z,1.73
2022-08-09T00:22:09.581Z,1.70
2022-08-09T00:24:39.290Z,1.60
2022-08-09T00:27:08.427Z,1.70
2022-08-09T00:29:39.801Z,1.70
2022-08-09T00:32:26.976Z,1.70
2022-08-09T00:34:55.703Z,1.63
2022-08-09T00:37:25.480Z,1.73
2022-08-09T00:40:12.060Z,1.67
2022-08-09T00:44:15.693Z,1.77
2022-08-09T00:45:29.661Z,1.60
2022-08-09T00:47:57.572Z,1.80
2022-08-09T00:50:27.444Z,1.90
2022-08-09T00:52:59.011Z,1.92
2022-08-09T00:56:03.808Z,1.70
2022-08-09T00:58:22.242Z,2.07
2022-08-09T01:00:55.772Z,2.03
2022-08-09T01:03:40.834Z,1.58
2022-08-09T01:06:22.273Z,1.75
2022-08-09T01:09:06.116Z,1.80
2022-08-09T01:11:55.632Z,1.75
2022-08-09T01:14:31.488Z,1.48
2022-08-09T01:17:04.583Z,1.73
2022-08-09T01:19:57.252Z,1.70
2022-08-09T01:23:03.426Z,1.55
2022-08-09T01:25:53.019Z,1.90
2022-08-09T01:28:23.503Z,2.00
2022-08-09T01:30:59.200Z,1.43
2022-08-09T01:33:30.894Z,1.97
2022-08-09T01:36:04.447Z,1.60
2022-08-09T01:38:38.508Z,1.33
2022-08-09T01:41:14.322Z,1.77
2022-08-09T01:43:54.527Z,1.80
2022-08-09T01:46:26.488Z,2.53
2022-08-09T01:49:00.273Z,1.80
2022-08-09T01:51:44.289Z,2.30
2022-08-09T01:54:14.827Z,2.17
2022-08-09T01:56:51.536Z,2.60
2022-08-09T01:59:23.275Z,2.10
2022-08-09T02:02:00.317Z,2.23
2022-08-09T02:04:30.799Z,2.10
2022-08-09T02:07:18.254Z,2.05
2022-08-09T02:10:06.232Z,1.92
2022-08-09T02:12:36.468Z,2.23
2022-08-09T02:15:11.813Z,2.07
2022-08-09T02:18:09.876Z,2.20
2022-08-09T02:20:37.114Z,1.87
2022-08-09T02:23:09.320Z,1.83
2022-08-09T02:25:42.766Z,1.67
2022-08-09T02:28:26.252Z,1.90
2022-08-09T02:31:02.597Z,2.00
2022-08-09T02:34:07.598Z,2.10
2022-08-09T02:36:31.256Z,2.00
2022-08-09T02:39:05.780Z,1.97
2022-08-09T02:41:38.448Z,1.80
2022-08-09T02:44:29.473Z,2.23
2022-08-09T02:47:04.501Z,2.00
2022-08-09T02:49:38.847Z,2.47
2022-08-09T02:52:13.504Z,2.20
2022-08-09T02:54:51.181Z,1.80
2022-08-09T02:57:24.007Z,1.80
2022-08-09T03:00:21.278Z,2.10
2022-08-09T03:02:58.400Z,2.00
2022-08-09T03:05:29.247Z,2.10
2022-08-09T03:07:57.892Z,2.23
2022-08-09T03:10:27.363Z,2.17
2022-08-09T03:12:56.292Z,2.40
2022-08-09T03:15:40.689Z,2.03
2022-08-09T03:18:16.597Z,2.07
2022-08-09T03:20:59.836Z,2.20
2022-08-09T03:23:28.411Z,2.23
2022-08-09T03:26:03.401Z,2.00
2022-08-09T03:28:34.956Z,2.03
2022-08-09T03:31:10.033Z,1.83
2022-08-09T03:33:54.948Z,2.60
2022-08-09T03:36:27.748Z,2.10
2022-08-09T03:38:57.929Z,1.87
2022-08-09T03:41:29.723Z,2.40
2022-08-09T03:44:12.766Z,2.73
2022-08-09T03:46:40.640Z,2.13
2022-08-09T03:49:10.859Z,2.20
2022-08-09T03:51:56.772Z,2.03
2022-08-09T03:54:32.209Z,2.10
2022-08-09T03:57:18.369Z,2.30
2022-08-09T03:59:53.157Z,2.27
2022-08-09T04:02:30.167Z,2.20
2022-08-09T04:05:06.774Z,2.37
2022-08-09T04:07:56.940Z,2.20
2022-08-09T04:10:29.578Z,2.20
2022-08-09T04:13:01.323Z,2.53
2022-08-09T04:16:18.234Z,2.40
2022-08-09T04:18:21.367Z,2.50
2022-08-09T04:20:51.847Z,2.90
2022-08-09T04:23:23.496Z,2.70
2022-08-09T04:25:53.352Z,2.53
2022-08-09T04:28:33.830Z,2.73
2022-08-09T04:31:08.656Z,2.93
2022-08-09T04:33:53.176Z,2.93
2022-08-09T04:36:27.892Z,2.47
2022-08-09T04:38:57.880Z,2.97
2022-08-09T04:41:32.092Z,2.60
2022-08-09T04:44:06.328Z,2.70
2022-08-09T04:46:59.062Z,2.20
2022-08-09T04:49:40.173Z,2.93
2022-08-09T04:52:18.663Z,2.70
2022-08-09T04:54:54.907Z,3.00
2022-08-09T04:57:24.455Z,2.87
2022-08-09T04:59:54.624Z,3.27
2022-08-09T05:02:22.841Z,3.37
2022-08-09T05:04:55.046Z,3.03
2022-08-09T05:07:29.263Z,2.70
2022-08-09T05:10:02.047Z,3.27
2022-08-09T05:12:31.278Z,3.60
2022-08-09T05:15:03.319Z,3.60
2022-08-09T05:18:50.637Z,3.43
2022-08-09T05:20:19.128Z,3.40
2022-08-09T05:23:55.201Z,3.40
2022-08-09T05:25:36.422Z,3.17
2022-08-09T05:28:05.264Z,2.63
2022-08-09T05:30:35.416Z,2.77
2022-08-09T05:33:04.405Z,3.47
2022-08-09T05:35:38.901Z,3.43
2022-08-09T05:38:22.138Z,3.43
2022-08-09T05:40:50.774Z,3.87
2022-08-09T05:43:19.208Z,3.85
2022-08-09T05:45:56.868Z,3.60
2022-08-09T05:48:27.848Z,3.93
2022-08-09T05:51:30.136Z,3.50
2022-08-09T05:53:56.523Z,3.53
2022-08-09T05:56:26.023Z,3.33
2022-08-09T05:58:58.451Z,3.72
2022-08-09T06:01:27.000Z,3.78
2022-08-09T06:04:05.502Z,3.65
2022-08-09T06:06:34.203Z,3.27
2022-08-09T06:09:03.597Z,3.75
2022-08-09T06:11:41.247Z,3.35
2022-08-09T06:14:26.272Z,3.47
2022-08-09T06:16:57.353Z,3.42
2022-08-09T06:19:25.373Z,3.13
2022-08-09T06:21:58.916Z,3.08
2022-08-09T06:24:28.510Z,3.50
2022-08-09T06:26:56.523Z,3.25
2022-08-09T06:29:24.507Z,3.55
2022-08-09T06:32:36.215Z,3.22
2022-08-09T06:34:42.902Z,3.20
2022-08-09T06:37:10.774Z,3.00
2022-08-09T06:39:57.910Z,3.00
2022-08-09T06:42:30.761Z,3.17
2022-08-09T06:45:52.073Z,3.55
2022-08-09T06:47:58.019Z,3.22
2022-08-09T06:50:31.094Z,3.08
2022-08-09T06:53:00.867Z,2.75
2022-08-09T06:55:33.232Z,3.28
2022-08-09T06:58:04.545Z,3.30
2022-08-09T07:00:54.408Z,3.60
2022-08-09T07:03:28.060Z,3.58
2022-08-09T07:06:02.971Z,2.92
2022-08-09T07:08:33.546Z,2.95
2022-08-09T07:11:06.399Z,3.15
2022-08-09T07:13:45.217Z,3.05
2022-08-09T07:16:41.370Z,3.45
2022-08-09T07:19:15.577Z,3.17
2022-08-09T07:21:50.150Z,2.95
2022-08-09T07:24:32.446Z,2.95
2022-08-09T07:27:27.109Z,3.08
2022-08-09T07:29:59.995Z,2.83
2022-08-09T07:32:32.905Z,3.45
2022-08-09T07:35:08.185Z,3.42
2022-08-09T07:37:42.887Z,3.10
2022-08-09T07:40:17.320Z,3.25
2022-08-09T07:42:54.213Z,3.33
2022-08-09T07:45:40.257Z,3.22
2022-08-09T07:48:28.393Z,3.00
2022-08-09T07:51:09.601Z,3.10
2022-08-09T07:54:04.897Z,2.80
2022-08-09T07:56:36.033Z,3.17
2022-08-09T07:59:16.117Z,2.95
2022-08-09T08:01:55.825Z,2.90
2022-08-09T08:04:31.379Z,3.22
2022-08-09T08:07:14.744Z,2.70
2022-08-09T08:09:53.605Z,3.17
2022-08-09T08:12:28.306Z,3.15
2022-08-09T08:14:59.620Z,2.95
2022-08-09T08:17:52.851Z,2.63
2022-08-09T08:20:16.057Z,2.70
2022-08-09T08:22:44.520Z,3.47
2022-08-09T08:25:16.960Z,2.90
2022-08-09T08:27:49.856Z,2.45
2022-08-09T08:30:19.669Z,2.67
2022-08-09T08:32:52.470Z,2.55
2022-08-09T08:35:22.893Z,3.00
2022-08-09T08:38:01.817Z,2.83
2022-08-09T08:40:33.746Z,2.08
2022-08-09T08:43:13.457Z,2.53
2022-08-09T08:45:53.461Z,2.53
2022-08-09T08:48:33.533Z,2.67
2022-08-09T08:51:04.371Z,2.67
2022-08-09T08:53:37.069Z,2.05
2022-08-09T08:56:06.442Z,2.55
2022-08-09T08:58:37.084Z,2.40
2022-08-09T09:01:09.126Z,2.50
2022-08-09T09:03:50.796Z,2.30
2022-08-09T09:06:20.757Z,2.13
2022-08-09T09:08:52.367Z,2.63
2022-08-09T09:11:21.664Z,2.40
2022-08-09T09:13:56.595Z,2.40
2022-08-09T09:16:32.349Z,2.22
2022-08-09T09:19:40.105Z,2.13
2022-08-09T09:22:05.374Z,2.30
2022-08-09T09:24:38.762Z,2.28
2022-08-09T09:27:09.376Z,2.30
2022-08-09T09:30:12.289Z,2.10
2022-08-09T09:32:39.965Z,2.30
2022-08-09T09:35:10.258Z,2.30
2022-08-09T09:37:40.472Z,2.03
2022-08-09T09:40:11.620Z,2.25
2022-08-09T09:42:46.066Z,2.05
2022-08-09T09:45:26.823Z,2.17
2022-08-09T09:47:59.661Z,2.42
2022-08-09T09:50:50.521Z,2.22
2022-08-09T09:53:21.605Z,2.55
2022-08-09T09:56:31.016Z,2.55
2022-08-09T09:58:57.879Z,2.85
2022-08-09T10:01:31.386Z,2.45
2022-08-09T10:04:16.201Z,2.28
2022-08-09T10:06:52.113Z,1.95
2022-08-09T10:09:24.072Z,2.35
2022-08-09T10:12:12.317Z,2.22
2022-08-09T10:14:49.470Z,2.17
2022-08-09T10:17:40.649Z,2.38
2022-08-09T10:20:27.007Z,2.50
2022-08-09T10:23:19.985Z,2.03
2022-08-09T10:26:07.338Z,2.10
2022-08-09T10:28:39.865Z,1.80
2022-08-09T10:34:09.993Z,1.92
2022-08-09T10:36:42.246Z,2.00
2022-08-09T10:39:15.844Z,1.98
2022-08-09T10:41:46.123Z,2.17
2022-08-09T10:44:19.546Z,2.40
2022-08-09T10:48:12.377Z,1.77
2022-08-09T10:50:14.896Z,2.45
2022-08-09T10:53:10.733Z,1.65
2022-08-09T10:55:55.296Z,2.22
2022-08-09T10:58:32.377Z,2.08
2022-08-09T11:03:03.019Z,2.22
2022-08-09T11:04:27.917Z,1.88
2022-08-09T11:07:58.302Z,2.30
2022-08-09T11:10:59.015Z,2.13
2022-08-09T11:13:50.402Z,2.33
2022-08-09T11:16:41.009Z,2.25
2022-08-09T11:19:11.222Z,1.80
2022-08-09T11:22:10.322Z,1.95
2022-08-09T11:25:09.110Z,2.30
2022-08-09T11:28:02.792Z,1.88
2022-08-09T11:30:36.082Z,2.20
2022-08-09T11:33:06.947Z,1.92
2022-08-09T11:35:50.057Z,2.25
2022-08-09T11:38:22.017Z,1.95
2022-08-09T11:40:54.669Z,1.70
2022-08-09T11:43:43.387Z,2.17
2022-08-09T11:46:11.566Z,1.90
2022-08-09T11:48:51.281Z,1.60
2022-08-09T11:53:00.869Z,2.03
2022-08-09T11:54:27.863Z,1.98
2022-08-09T11:58:00.531Z,1.75
2022-08-09T12:00:29.876Z,1.85
2022-08-09T12:03:00.632Z,2.00
2022-08-09T12:05:50.193Z,2.08
2022-08-09T12:08:21.951Z,2.17
2022-08-09T12:10:53.067Z,1.85
2022-08-09T12:14:07.846Z,1.90
2022-08-09T12:16:37.592Z,2.03
2022-08-09T12:19:09.550Z,1.90
2022-08-09T12:21:48.253Z,1.77
2022-08-09T12:24:24.100Z,2.00
2022-08-09T12:29:11.489Z,1.70
2022-08-09T12:30:02.089Z,1.88
2022-08-09T12:32:48.446Z,2.05
2022-08-09T12:35:21.635Z,1.98
2022-08-09T12:37:52.234Z,1.73
2022-08-09T12:40:23.268Z,2.03
2022-08-09T12:42:54.040Z,2.00
2022-08-09T12:45:32.410Z,2.08
2022-08-09T12:48:03.798Z,2.40
2022-08-09T12:50:31.992Z,2.00
2022-08-09T12:53:17.838Z,1.85
2022-08-09T12:56:15.859Z,1.95
2022-08-09T12:58:42.599Z,1.88
2022-08-09T13:01:22.898Z,2.20
2022-08-09T13:04:03.821Z,1.90
2022-08-09T13:06:35.619Z,2.00
2022-08-09T13:09:12.793Z,1.70
2022-08-09T13:11:42.983Z,2.05
2022-08-09T13:14:42.703Z,1.80
2022-08-09T13:17:03.425Z,2.05
2022-08-09T13:20:08.774Z,2.10
2022-08-09T13:22:36.964Z,2.00
2022-08-09T13:25:13.851Z,1.90
2022-08-09T13:27:54.514Z,2.45
2022-08-09T13:30:49.017Z,1.90
2022-08-09T13:33:17.279Z,1.90
2022-08-09T13:36:37.534Z,1.67
2022-08-09T13:38:55.013Z,1.92
2022-08-09T13:41:59.395Z,2.08
2022-08-09T13:44:16.874Z,2.00
2022-08-09T13:47:16.672Z,1.88
2022-08-09T13:49:38.106Z,2.00
2022-08-09T13:52:09.654Z,1.83
2022-08-09T13:54:41.715Z,1.70
2022-08-09T13:57:14.303Z,1.98
2022-08-09T13:59:59.477Z,1.90
2022-08-09T14:02:29.136Z,1.80
2022-08-09T14:04:59.954Z,1.98
2022-08-09T14:07:30.355Z,2.15
2022-08-09T14:10:17.248Z,2.05
2022-08-09T14:12:56.789Z,1.77
2022-08-09T14:16:06.518Z,2.00
2022-08-09T14:18:19.501Z,1.73
2022-08-09T14:20:48.856Z,1.55
2022-08-09T14:23:20.307Z,1.67
2022-08-09T14:26:06.573Z,1.58
2022-08-09T14:28:34.917Z,1.55
2022-08-09T14:31:02.741Z,1.75
2022-08-09T14:33:30.722Z,1.90
2022-08-09T14:36:19.746Z,1.92
2022-08-09T14:38:52.981Z,1.80
2022-08-09T14:41:34.419Z,1.70
2022-08-09T14:44:11.036Z,1.63
2022-08-09T14:47:04.876Z,1.92
2022-08-09T14:49:27.688Z,1.67
2022-08-09T14:51:58.833Z,1.98
2022-08-09T14:54:28.601Z,1.77
2022-08-09T14:56:58.884Z,2.08
2022-08-09T14:59:28.450Z,1.65
2022-08-09T15:01:56.994Z,1.90
2022-08-09T15:04:26.386Z,2.10
2022-08-09T15:06:54.360Z,1.90
2022-08-09T15:10:03.904Z,1.73
2022-08-09T15:12:12.810Z,2.20
2022-08-09T15:14:40.690Z,1.75
2022-08-09T15:17:09.782Z,2.05
2022-08-09T15:19:59.351Z,1.50
2022-08-09T15:22:28.083Z,1.83
2022-08-09T15:24:56.158Z,1.77
2022-08-09T15:27:27.439Z,1.67
2022-08-09T15:30:58.916Z,1.80
2022-08-09T15:32:45.672Z,1.77
2022-08-09T15:35:18.102Z,1.90
2022-08-09T15:38:11.524Z,1.77
2022-08-09T15:40:43.776Z,2.08
2022-08-09T15:43:14.092Z,1.88
2022-08-09T15:45:52.086Z,1.70
2022-08-09T15:48:31.733Z,1.60
2022-08-09T15:51:00.613Z,1.67
2022-08-09T15:54:05.384Z,1.80
2022-08-09T15:56:28.407Z,1.85
2022-08-09T15:59:00.104Z,1.52
2022-08-09T16:01:31.467Z,2.00
2022-08-09T16:04:03.815Z,1.52
2022-08-09T16:06:34.882Z,1.77
2022-08-09T16:09:05.617Z,1.60
2022-08-09T16:11:33.917Z,1.40
2022-08-09T16:14:06.889Z,1.77
2022-08-09T16:16:37.309Z,1.63
2022-08-09T16:19:07.584Z,1.52
2022-08-09T16:21:35.893Z,1.90
2022-08-09T16:24:04.739Z,1.90
2022-08-09T16:26:36.273Z,1.60
2022-08-09T16:29:11.319Z,1.58
2022-08-09T16:32:19.085Z,1.88
2022-08-09T16:34:29.209Z,1.65
2022-08-09T16:36:57.360Z,1.80
2022-08-09T16:39:26.335Z,1.77
2022-08-09T16:42:03.527Z,1.48
2022-08-09T16:44:34.137Z,1.40
2022-08-09T16:48:36.515Z,1.63
2022-08-09T16:50:29.507Z,1.52
2022-08-09T16:52:37.649Z,1.48
2022-08-09T16:55:08.127Z,1.67
2022-08-09T16:58:09.906Z,1.90
2022-08-09T17:00:33.466Z,1.75
2022-08-09T17:03:01.781Z,1.60
2022-08-09T17:06:06.614Z,1.60
2022-08-09T17:08:45.245Z,1.35
2022-08-09T17:11:06.138Z,1.60
2022-08-09T17:13:34.608Z,1.50
2022-08-09T17:16:04.059Z,1.60
2022-08-09T17:18:31.920Z,1.60
2022-08-09T17:20:59.716Z,1.35
2022-08-09T17:24:20.121Z,1.60
2022-08-09T17:26:17.539Z,1.20
2022-08-09T17:28:57.265Z,1.50
2022-08-09T17:31:26.673Z,1.42
2022-08-09T17:33:58.821Z,1.38
2022-08-09T17:36:26.749Z,1.30
2022-08-09T17:38:58.670Z,1.40
2022-08-09T17:41:38.706Z,1.45
2022-08-09T17:44:42.335Z,1.65
2022-08-09T17:46:57.734Z,1.48
2022-08-09T17:49:25.799Z,1.65
2022-08-09T17:51:58.420Z,1.70
2022-08-09T17:54:29.759Z,1.38
2022-08-09T17:56:57.768Z,1.50
2022-08-09T17:59:36.608Z,1.40
2022-08-09T18:02:12.918Z,1.40
2022-08-09T18:04:48.495Z,1.45
2022-08-09T18:07:23.200Z,1.60
2022-08-09T18:10:04.696Z,1.33
2022-08-09T18:13:38.339Z,1.33
2022-08-09T18:15:21.604Z,1.50
2022-08-09T18:18:25.584Z,1.10
2022-08-09T18:21:19.118Z,1.50
2022-08-09T18:24:09.787Z,0.90
2022-08-09T18:26:32.851Z,0.90
2022-08-09T18:30:40.106Z,1.38
2022-08-09T18:31:55.187Z,1.30
2022-08-09T18:34:28.955Z,1.40
2022-08-09T18:36:56.831Z,1.30
2022-08-09T18:39:25.684Z,1.10
2022-08-09T18:42:01.050Z,1.17
2022-08-09T18:44:29.050Z,1.13
2022-08-09T18:47:06.467Z,1.52
2022-08-09T18:49:43.625Z,1.10
2022-08-09T18:52:18.551Z,1.10
2022-08-09T18:54:52.822Z,1.30
2022-08-09T18:57:23.040Z,1.13
2022-08-09T18:59:57.541Z,1.50
2022-08-09T19:02:31.894Z,1.20
2022-08-09T19:05:04.085Z,1.20
2022-08-09T19:08:03.721Z,1.20
2022-08-09T19:10:37.603Z,1.40
2022-08-09T19:13:15.387Z,1.25
2022-08-09T19:15:50.095Z,1.50
2022-08-09T19:18:33.080Z,1.48
2022-08-09T19:21:08.782Z,1.52
2022-08-09T19:24:32.133Z,0.88
2022-08-09T19:26:31.069Z,1.13
2022-08-09T19:29:01.819Z,1.40
2022-08-09T19:31:45.067Z,1.77
2022-08-09T19:34:18.278Z,1.48
2022-08-09T19:36:51.972Z,1.02
2022-08-09T19:39:20.526Z,1.33
2022-08-09T19:41:57.783Z,1.50
2022-08-09T19:44:25.551Z,1.30
2022-08-09T19:46:53.830Z,1.30
2022-08-09T19:50:05.212Z,1.42
2022-08-09T19:52:12.282Z,1.08
2022-08-09T19:54:40.549Z,1.10
2022-08-09T19:57:08.674Z,1.50
2022-08-09T19:59:58.933Z,1.23
2022-08-09T20:04:11.438Z,1.30
2022-08-09T20:05:15.236Z,1.20
2022-08-09T20:07:58.741Z,1.20
2022-08-09T20:10:33.984Z,1.10
2022-08-09T20:13:04.742Z,1.20
2022-08-09T20:16:34.502Z,1.20
2022-08-09T20:18:22.340Z,1.10
2022-08-09T20:20:51.434Z,1.30
2022-08-09T20:23:38.466Z,1.10
2022-08-09T20:26:07.954Z,1.10
2022-08-09T20:28:47.595Z,1.08
2022-08-09T20:31:16.987Z,1.02
2022-08-09T20:33:44.976Z,1.17
2022-08-09T20:36:12.935Z,1.10
2022-08-09T20:39:18.772Z,1.27
2022-08-09T20:41:34.743Z,1.00
2022-08-09T20:44:10.469Z,1.20
2022-08-09T20:46:43.126Z,1.08
2022-08-09T20:49:12.217Z,1.08
2022-08-09T20:51:41.366Z,1.30
2022-08-09T20:54:16.727Z,1.33
2022-08-09T20:56:47.069Z,1.48
2022-08-09T20:59:24.831Z,1.10
2022-08-09T21:02:05.326Z,1.10
2022-08-09T21:05:52.592Z,1.40
2022-08-09T21:07:21.004Z,1.10
2022-08-09T21:09:59.405Z,1.02
2022-08-09T21:15:16.565Z,1.08
2022-08-09T21:18:21.641Z,1.25
2022-08-09T21:20:35.577Z,1.23
2022-08-09T21:23:04.322Z,1.20
2022-08-09T21:25:55.688Z,1.23
2022-08-09T21:28:33.436Z,1.02
2022-08-09T21:31:17.980Z,1.20
2022-08-09T21:33:51.754Z,1.20
2022-08-09T21:36:23.154Z,1.35
2022-08-09T21:38:57.430Z,1.25
2022-08-09T21:42:04.265Z,1.20
2022-08-09T21:44:32.892Z,0.90
2022-08-09T21:47:02.834Z,1.00
2022-08-09T21:49:39.700Z,1.10
2022-08-09T21:52:14.914Z,1.45
2022-08-09T21:54:50.655Z,1.30
2022-08-09T21:57:38.997Z,1.17
2022-08-09T22:00:18.076Z,1.30
2022-08-09T22:02:58.360Z,1.30
2022-08-09T22:05:36.964Z,1.42
2022-08-09T22:08:13.447Z,1.00
2022-08-09T22:11:00.294Z,1.10
2022-08-09T22:13:34.554Z,1.00
2022-08-09T22:16:03.991Z,1.05
2022-08-09T22:18:33.071Z,1.20
2022-08-09T22:21:01.398Z,0.90
2022-08-09T22:23:35.338Z,1.20
2022-08-09T22:26:07.585Z,1.23
2022-08-09T22:28:47.368Z,1.20
2022-08-09T22:31:21.991Z,1.05
2022-08-09T22:33:55.783Z,1.58
2022-08-09T22:36:24.792Z,1.10
2022-08-09T22:38:52.724Z,1.30
2022-08-09T22:41:20.551Z,1.25
2022-08-09T22:44:03.602Z,1.40
2022-08-09T22:48:10.059Z,0.98
2022-08-09T22:49:20.987Z,1.05
2022-08-09T22:51:56.876Z,1.08
2022-08-09T22:54:27.328Z,1.10
2022-08-09T22:56:57.047Z,1.20
2022-08-09T22:59:56.800Z,1.05
2022-08-09T23:02:20.120Z,1.10
2022-08-09T23:04:53.467Z,1.02
2022-08-09T23:08:22.265Z,1.50
2022-08-09T23:10:28.487Z,1.20
2022-08-09T23:12:56.372Z,1.10
2022-08-09T23:15:25.983Z,1.40
2022-08-09T23:17:53.836Z,1.20
2022-08-09T23:20:21.998Z,1.23
2022-08-09T23:22:49.865Z,1.23
2022-08-09T23:25:17.673Z,1.25
2022-08-09T23:28:11.658Z,1.10
2022-08-09T23:30:34.680Z,1.15
2022-08-09T23:33:02.471Z,1.40
2022-08-09T23:35:30.277Z,1.15
2022-08-09T23:37:58.123Z,1.38
2022-08-09T23:40:25.884Z,1.17
2022-08-09T23:42:53.649Z,1.25
2022-08-09T23:45:36.538Z,1.02
2022-08-09T23:48:09.060Z,1.27
2022-08-09T23:50:37.158Z,1.25
2022-08-09T23:53:05.441Z,1.10
2022-08-09T23:55:37.766Z,1.33
2022-08-09T23:58:08.549Z,1.25
